sensor_id;sensor_type;location;lat;lon;timestamp;P1;durP1;ratioP1;P2;durP2;ratioP2
13425;SDS011;6785;57.918;12.530;2022-11-21T00:01:47;1.53;;;1.43;;
13425;SDS011;6785;57.918;12.530;2022-11-21T00:04:14;2.00;;;1.60;;
13425;SDS011;6785;57.918;12.530;2022-11-21T00:06:40;2.00;;;1.33;;
13425;SDS011;6785;57.918;12.530;2022-11-21T00:09:08;1.60;;;1.40;;
13425;SDS011;6785;57.918;12.530;2022-11-21T00:11:35;2.97;;;1.30;;
13425;SDS011;6785;57.918;12.530;2022-11-21T00:14:02;1.93;;;1.60;;
13425;SDS011;6785;57.918;12.530;2022-11-21T00:16:29;1.50;;;1.40;;
13425;SDS011;6785;57.918;12.530;2022-11-21T00:18:56;1.83;;;1.50;;
13425;SDS011;6785;57.918;12.530;2022-11-21T00:21:23;1.43;;;1.33;;
13425;SDS011;6785;57.918;12.530;2022-11-21T00:23:50;2.57;;;1.40;;
13425;SDS011;6785;57.918;12.530;2022-11-21T00:26:19;1.60;;;1.40;;
13425;SDS011;6785;57.918;12.530;2022-11-21T00:28:46;1.77;;;1.50;;
13425;SDS011;6785;57.918;12.530;2022-11-21T00:31:19;1.40;;;1.30;;
13425;SDS011;6785;57.918;12.530;2022-11-21T00:33:47;1.40;;;1.30;;
13425;SDS011;6785;57.918;12.530;2022-11-21T00:36:14;1.40;;;1.30;;
13425;SDS011;6785;57.918;12.530;2022-11-21T00:38:40;3.20;;;1.50;;
13425;SDS011;6785;57.918;12.530;2022-11-21T00:41:07;2.03;;;1.60;;
13425;SDS011;6785;57.918;12.530;2022-11-21T00:43:35;1.60;;;1.50;;
13425;SDS011;6785;57.918;12.530;2022-11-21T00:46:02;1.80;;;1.57;;
13425;SDS011;6785;57.918;12.530;2022-11-21T00:48:29;1.30;;;1.20;;
13425;SDS011;6785;57.918;12.530;2022-11-21T00:50:57;1.50;;;1.40;;
13425;SDS011;6785;57.918;12.530;2022-11-21T00:53:25;1.80;;;1.70;;
13425;SDS011;6785;57.918;12.530;2022-11-21T00:55:52;1.50;;;1.40;;
13425;SDS011;6785;57.918;12.530;2022-11-21T00:58:18;1.47;;;1.37;;
13425;SDS011;6785;57.918;12.530;2022-11-21T01:00:47;1.83;;;1.67;;
13425;SDS011;6785;57.918;12.530;2022-11-21T01:03:13;1.67;;;1.50;;
13425;SDS011;6785;57.918;12.530;2022-11-21T01:05:41;2.37;;;1.67;;
13425;SDS011;6785;57.918;12.530;2022-11-21T01:08:07;2.03;;;1.70;;
13425;SDS011;6785;57.918;12.530;2022-11-21T01:10:34;2.13;;;1.33;;
13425;SDS011;6785;57.918;12.530;2022-11-21T01:13:01;7.63;;;1.80;;
13425;SDS011;6785;57.918;12.530;2022-11-21T01:15:28;1.60;;;1.50;;
13425;SDS011;6785;57.918;12.530;2022-11-21T01:17:56;1.57;;;1.47;;
13425;SDS011;6785;57.918;12.530;2022-11-21T01:20:23;1.50;;;1.40;;
13425;SDS011;6785;57.918;12.530;2022-11-21T01:22:50;1.67;;;1.50;;
13425;SDS011;6785;57.918;12.530;2022-11-21T01:25:17;3.40;;;1.90;;
13425;SDS011;6785;57.918;12.530;2022-11-21T01:27:44;1.53;;;1.43;;
13425;SDS011;6785;57.918;12.530;2022-11-21T01:30:11;1.60;;;1.40;;
13425;SDS011;6785;57.918;12.530;2022-11-21T01:32:39;3.53;;;1.80;;
13425;SDS011;6785;57.918;12.530;2022-11-21T01:35:07;2.07;;;1.70;;
13425;SDS011;6785;57.918;12.530;2022-11-21T01:37:34;1.97;;;1.77;;
13425;SDS011;6785;57.918;12.530;2022-11-21T01:40:01;2.20;;;1.93;;
13425;SDS011;6785;57.918;12.530;2022-11-21T01:42:28;1.93;;;1.73;;
13425;SDS011;6785;57.918;12.530;2022-11-21T01:48:20;2.40;;;1.80;;
13425;SDS011;6785;57.918;12.530;2022-11-21T01:50:51;2.53;;;1.80;;
13425;SDS011;6785;57.918;12.530;2022-11-21T01:53:19;2.00;;;1.80;;
13425;SDS011;6785;57.918;12.530;2022-11-21T01:55:46;1.90;;;1.70;;
13425;SDS011;6785;57.918;12.530;2022-11-21T01:58:14;2.60;;;2.10;;
13425;SDS011;6785;57.918;12.530;2022-11-21T02:00:41;3.07;;;2.10;;
13425;SDS011;6785;57.918;12.530;2022-11-21T02:03:12;2.30;;;1.80;;
13425;SDS011;6785;57.918;12.530;2022-11-21T02:05:42;2.57;;;2.20;;
13425;SDS011;6785;57.918;12.530;2022-11-21T02:08:12;2.33;;;2.07;;
13425;SDS011;6785;57.918;12.530;2022-11-21T02:10:44;3.03;;;2.20;;
13425;SDS011;6785;57.918;12.530;2022-11-21T02:13:18;2.10;;;1.87;;
13425;SDS011;6785;57.918;12.530;2022-11-21T02:15:46;2.13;;;1.97;;
13425;SDS011;6785;57.918;12.530;2022-11-21T02:18:13;2.20;;;2.00;;
13425;SDS011;6785;57.918;12.530;2022-11-21T02:20:40;2.27;;;1.90;;
13425;SDS011;6785;57.918;12.530;2022-11-21T02:23:16;2.47;;;2.13;;
13425;SDS011;6785;57.918;12.530;2022-11-21T02:25:48;2.50;;;2.13;;
13425;SDS011;6785;57.918;12.530;2022-11-21T02:28:17;2.83;;;2.30;;
13425;SDS011;6785;57.918;12.530;2022-11-21T02:30:47;3.20;;;2.27;;
13425;SDS011;6785;57.918;12.530;2022-11-21T02:33:14;2.53;;;2.30;;
13425;SDS011;6785;57.918;12.530;2022-11-21T02:35:41;2.53;;;2.20;;
13425;SDS011;6785;57.918;12.530;2022-11-21T02:38:10;2.47;;;2.03;;
13425;SDS011;6785;57.918;12.530;2022-11-21T02:40:46;2.60;;;2.30;;
13425;SDS011;6785;57.918;12.530;2022-11-21T02:43:18;3.33;;;2.67;;
13425;SDS011;6785;57.918;12.530;2022-11-21T02:45:48;2.83;;;2.40;;
13425;SDS011;6785;57.918;12.530;2022-11-21T02:48:15;4.63;;;2.53;;
13425;SDS011;6785;57.918;12.530;2022-11-21T02:50:43;2.97;;;2.23;;
13425;SDS011;6785;57.918;12.530;2022-11-21T02:53:11;2.27;;;2.00;;
13425;SDS011;6785;57.918;12.530;2022-11-21T02:55:41;4.30;;;2.20;;
13425;SDS011;6785;57.918;12.530;2022-11-21T02:58:10;2.77;;;2.47;;
13425;SDS011;6785;57.918;12.530;2022-11-21T03:00:38;3.40;;;2.43;;
13425;SDS011;6785;57.918;12.530;2022-11-21T03:03:06;3.73;;;2.47;;
13425;SDS011;6785;57.918;12.530;2022-11-21T03:05:33;2.70;;;2.20;;
13425;SDS011;6785;57.918;12.530;2022-11-21T03:08:00;4.90;;;2.23;;
13425;SDS011;6785;57.918;12.530;2022-11-21T03:10:27;2.57;;;2.23;;
13425;SDS011;6785;57.918;12.530;2022-11-21T03:12:53;3.20;;;2.43;;
13425;SDS011;6785;57.918;12.530;2022-11-21T03:15:26;3.17;;;2.20;;
13425;SDS011;6785;57.918;12.530;2022-11-21T03:17:53;5.97;;;2.30;;
13425;SDS011;6785;57.918;12.530;2022-11-21T03:20:20;2.50;;;2.30;;
13425;SDS011;6785;57.918;12.530;2022-11-21T03:22:47;2.20;;;2.00;;
13425;SDS011;6785;57.918;12.530;2022-11-21T03:25:14;2.63;;;2.40;;
13425;SDS011;6785;57.918;12.530;2022-11-21T03:27:42;2.43;;;2.23;;
13425;SDS011;6785;57.918;12.530;2022-11-21T03:30:09;2.60;;;2.30;;
13425;SDS011;6785;57.918;12.530;2022-11-21T03:32:38;3.33;;;2.13;;
13425;SDS011;6785;57.918;12.530;2022-11-21T03:35:05;2.47;;;2.27;;
13425;SDS011;6785;57.918;12.530;2022-11-21T03:37:32;3.80;;;2.47;;
13425;SDS011;6785;57.918;12.530;2022-11-21T03:39:59;2.73;;;2.13;;
13425;SDS011;6785;57.918;12.530;2022-11-21T03:42:25;2.40;;;2.10;;
13425;SDS011;6785;57.918;12.530;2022-11-21T03:44:52;2.27;;;2.07;;
13425;SDS011;6785;57.918;12.530;2022-11-21T03:47:19;2.20;;;2.00;;
13425;SDS011;6785;57.918;12.530;2022-11-21T03:49:48;3.70;;;2.37;;
13425;SDS011;6785;57.918;12.530;2022-11-21T03:52:14;4.77;;;2.33;;
13425;SDS011;6785;57.918;12.530;2022-11-21T03:54:41;3.23;;;2.40;;
13425;SDS011;6785;57.918;12.530;2022-11-21T03:57:08;2.47;;;2.10;;
13425;SDS011;6785;57.918;12.530;2022-11-21T03:59:35;2.13;;;1.93;;
13425;SDS011;6785;57.918;12.530;2022-11-21T04:02:01;3.13;;;2.13;;
13425;SDS011;6785;57.918;12.530;2022-11-21T04:04:28;2.70;;;2.00;;
13425;SDS011;6785;57.918;12.530;2022-11-21T04:06:56;2.23;;;1.93;;
13425;SDS011;6785;57.918;12.530;2022-11-21T04:09:23;2.67;;;2.17;;
13425;SDS011;6785;57.918;12.530;2022-11-21T04:11:50;4.57;;;2.00;;
13425;SDS011;6785;57.918;12.530;2022-11-21T04:14:17;2.67;;;2.10;;
13425;SDS011;6785;57.918;12.530;2022-11-21T04:16:43;3.07;;;2.13;;
13425;SDS011;6785;57.918;12.530;2022-11-21T04:19:10;1.97;;;1.70;;
13425;SDS011;6785;57.918;12.530;2022-11-21T04:21:37;2.20;;;2.00;;
13425;SDS011;6785;57.918;12.530;2022-11-21T04:24:06;8.33;;;2.60;;
13425;SDS011;6785;57.918;12.530;2022-11-21T04:26:33;2.40;;;2.00;;
13425;SDS011;6785;57.918;12.530;2022-11-21T04:28:59;2.10;;;1.80;;
13425;SDS011;6785;57.918;12.530;2022-11-21T04:31:26;2.93;;;1.97;;
13425;SDS011;6785;57.918;12.530;2022-11-21T04:33:53;3.23;;;2.17;;
13425;SDS011;6785;57.918;12.530;2022-11-21T04:36:20;2.73;;;2.40;;
13425;SDS011;6785;57.918;12.530;2022-11-21T04:38:47;4.60;;;2.30;;
13425;SDS011;6785;57.918;12.530;2022-11-21T04:41:15;2.13;;;1.93;;
13425;SDS011;6785;57.918;12.530;2022-11-21T04:43:42;3.43;;;2.07;;
13425;SDS011;6785;57.918;12.530;2022-11-21T04:46:08;2.50;;;2.20;;
13425;SDS011;6785;57.918;12.530;2022-11-21T04:48:35;2.13;;;1.90;;
13425;SDS011;6785;57.918;12.530;2022-11-21T04:51:02;3.67;;;2.60;;
13425;SDS011;6785;57.918;12.530;2022-11-21T04:53:29;3.87;;;2.40;;
13425;SDS011;6785;57.918;12.530;2022-11-21T04:55:56;3.60;;;2.53;;
13425;SDS011;6785;57.918;12.530;2022-11-21T04:58:25;4.63;;;2.50;;
13425;SDS011;6785;57.918;12.530;2022-11-21T05:00:52;2.83;;;2.20;;
13425;SDS011;6785;57.918;12.530;2022-11-21T05:03:18;3.00;;;2.57;;
13425;SDS011;6785;57.918;12.530;2022-11-21T05:05:45;3.20;;;2.13;;
13425;SDS011;6785;57.918;12.530;2022-11-21T05:08:12;2.73;;;2.00;;
13425;SDS011;6785;57.918;12.530;2022-11-21T05:10:39;3.20;;;2.33;;
13425;SDS011;6785;57.918;12.530;2022-11-21T05:13:23;2.77;;;2.03;;
13425;SDS011;6785;57.918;12.530;2022-11-21T05:15:56;3.80;;;2.43;;
13425;SDS011;6785;57.918;12.530;2022-11-21T05:18:23;2.73;;;2.17;;
13425;SDS011;6785;57.918;12.530;2022-11-21T05:20:50;2.67;;;2.10;;
13425;SDS011;6785;57.918;12.530;2022-11-21T05:23:17;2.33;;;1.93;;
13425;SDS011;6785;57.918;12.530;2022-11-21T05:25:43;2.67;;;2.27;;
13425;SDS011;6785;57.918;12.530;2022-11-21T05:28:10;2.23;;;2.03;;
13425;SDS011;6785;57.918;12.530;2022-11-21T05:30:37;2.27;;;2.07;;
13425;SDS011;6785;57.918;12.530;2022-11-21T05:33:05;2.93;;;1.90;;
13425;SDS011;6785;57.918;12.530;2022-11-21T05:35:32;2.43;;;1.87;;
13425;SDS011;6785;57.918;12.530;2022-11-21T05:37:59;2.37;;;2.10;;
13425;SDS011;6785;57.918;12.530;2022-11-21T05:40:25;2.20;;;2.00;;
13425;SDS011;6785;57.918;12.530;2022-11-21T05:42:52;2.37;;;2.10;;
13425;SDS011;6785;57.918;12.530;2022-11-21T05:45:36;2.20;;;1.93;;
13425;SDS011;6785;57.918;12.530;2022-11-21T05:48:03;2.80;;;2.17;;
13425;SDS011;6785;57.918;12.530;2022-11-21T05:50:32;2.10;;;1.90;;
13425;SDS011;6785;57.918;12.530;2022-11-21T05:53:00;1.90;;;1.77;;
13425;SDS011;6785;57.918;12.530;2022-11-21T05:55:28;2.67;;;2.07;;
13425;SDS011;6785;57.918;12.530;2022-11-21T05:57:56;1.93;;;1.83;;
13425;SDS011;6785;57.918;12.530;2022-11-21T06:00:24;2.60;;;2.10;;
13425;SDS011;6785;57.918;12.530;2022-11-21T06:02:52;3.20;;;2.30;;
13425;SDS011;6785;57.918;12.530;2022-11-21T06:05:37;2.17;;;1.90;;
13425;SDS011;6785;57.918;12.530;2022-11-21T06:08:04;2.83;;;2.43;;
13425;SDS011;6785;57.918;12.530;2022-11-21T06:10:31;3.13;;;2.40;;
13425;SDS011;6785;57.918;12.530;2022-11-21T06:12:58;3.10;;;2.00;;
13425;SDS011;6785;57.918;12.530;2022-11-21T06:15:26;2.33;;;2.13;;
13425;SDS011;6785;57.918;12.530;2022-11-21T06:17:53;3.23;;;1.90;;
13425;SDS011;6785;57.918;12.530;2022-11-21T06:20:19;2.87;;;2.10;;
13425;SDS011;6785;57.918;12.530;2022-11-21T06:22:47;2.60;;;2.10;;
13425;SDS011;6785;57.918;12.530;2022-11-21T06:25:14;2.13;;;1.93;;
13425;SDS011;6785;57.918;12.530;2022-11-21T06:27:41;2.97;;;2.03;;
13425;SDS011;6785;57.918;12.530;2022-11-21T06:30:08;2.13;;;1.93;;
13425;SDS011;6785;57.918;12.530;2022-11-21T06:32:36;2.10;;;1.90;;
13425;SDS011;6785;57.918;12.530;2022-11-21T06:35:03;2.33;;;1.90;;
13425;SDS011;6785;57.918;12.530;2022-11-21T06:37:30;2.33;;;2.00;;
13425;SDS011;6785;57.918;12.530;2022-11-21T06:39:58;2.97;;;2.00;;
13425;SDS011;6785;57.918;12.530;2022-11-21T06:42:25;2.30;;;2.00;;
13425;SDS011;6785;57.918;12.530;2022-11-21T06:44:52;2.73;;;2.33;;
13425;SDS011;6785;57.918;12.530;2022-11-21T06:47:19;2.17;;;1.80;;
13425;SDS011;6785;57.918;12.530;2022-11-21T06:49:46;3.00;;;2.50;;
13425;SDS011;6785;57.918;12.530;2022-11-21T06:52:12;2.97;;;2.53;;
13425;SDS011;6785;57.918;12.530;2022-11-21T06:54:39;2.40;;;2.20;;
13425;SDS011;6785;57.918;12.530;2022-11-21T06:57:07;2.27;;;2.07;;
13425;SDS011;6785;57.918;12.530;2022-11-21T06:59:34;3.33;;;2.53;;
13425;SDS011;6785;57.918;12.530;2022-11-21T07:02:01;3.97;;;2.73;;
13425;SDS011;6785;57.918;12.530;2022-11-21T07:04:28;3.50;;;2.63;;
13425;SDS011;6785;57.918;12.530;2022-11-21T07:06:54;4.70;;;3.23;;
13425;SDS011;6785;57.918;12.530;2022-11-21T07:09:21;3.90;;;2.40;;
13425;SDS011;6785;57.918;12.530;2022-11-21T07:11:48;2.63;;;2.17;;
13425;SDS011;6785;57.918;12.530;2022-11-21T07:14:17;2.53;;;2.23;;
13425;SDS011;6785;57.918;12.530;2022-11-21T07:16:43;3.90;;;2.50;;
13425;SDS011;6785;57.918;12.530;2022-11-21T07:19:10;2.23;;;1.90;;
13425;SDS011;6785;57.918;12.530;2022-11-21T07:21:37;2.20;;;1.90;;
13425;SDS011;6785;57.918;12.530;2022-11-21T07:24:04;1.77;;;1.67;;
13425;SDS011;6785;57.918;12.530;2022-11-21T07:26:31;2.07;;;1.80;;
13425;SDS011;6785;57.918;12.530;2022-11-21T07:28:58;2.07;;;1.83;;
13425;SDS011;6785;57.918;12.530;2022-11-21T07:31:26;1.67;;;1.50;;
13425;SDS011;6785;57.918;12.530;2022-11-21T07:33:53;2.83;;;1.97;;
13425;SDS011;6785;57.918;12.530;2022-11-21T07:36:20;1.70;;;1.60;;
13425;SDS011;6785;57.918;12.530;2022-11-21T07:38:46;1.67;;;1.43;;
13425;SDS011;6785;57.918;12.530;2022-11-21T07:41:13;1.53;;;1.43;;
13425;SDS011;6785;57.918;12.530;2022-11-21T07:43:40;2.33;;;1.57;;
13425;SDS011;6785;57.918;12.530;2022-11-21T07:46:07;1.60;;;1.50;;
13425;SDS011;6785;57.918;12.530;2022-11-21T07:48:35;2.40;;;2.20;;
13425;SDS011;6785;57.918;12.530;2022-11-21T07:51:02;2.50;;;2.30;;
13425;SDS011;6785;57.918;12.530;2022-11-21T07:53:30;6.20;;;2.77;;
13425;SDS011;6785;57.918;12.530;2022-11-21T07:55:57;4.50;;;3.20;;
13425;SDS011;6785;57.918;12.530;2022-11-21T07:58:24;5.90;;;4.20;;
13425;SDS011;6785;57.918;12.530;2022-11-21T08:00:51;4.27;;;2.90;;
13425;SDS011;6785;57.918;12.530;2022-11-21T08:03:18;2.50;;;2.30;;
13425;SDS011;6785;57.918;12.530;2022-11-21T08:05:46;2.23;;;1.90;;
13425;SDS011;6785;57.918;12.530;2022-11-21T08:08:13;3.00;;;2.07;;
13425;SDS011;6785;57.918;12.530;2022-11-21T08:10:41;1.70;;;1.60;;
13425;SDS011;6785;57.918;12.530;2022-11-21T08:13:09;1.43;;;1.33;;
13425;SDS011;6785;57.918;12.530;2022-11-21T08:15:36;1.60;;;1.50;;
13425;SDS011;6785;57.918;12.530;2022-11-21T08:18:07;1.60;;;1.50;;
13425;SDS011;6785;57.918;12.530;2022-11-21T08:20:35;1.30;;;1.20;;
13425;SDS011;6785;57.918;12.530;2022-11-21T08:23:03;1.40;;;1.30;;
13425;SDS011;6785;57.918;12.530;2022-11-21T08:25:31;1.30;;;1.20;;
13425;SDS011;6785;57.918;12.530;2022-11-21T08:27:58;1.10;;;1.10;;
13425;SDS011;6785;57.918;12.530;2022-11-21T08:30:26;1.27;;;1.20;;
13425;SDS011;6785;57.918;12.530;2022-11-21T08:32:53;1.90;;;1.70;;
13425;SDS011;6785;57.918;12.530;2022-11-21T08:35:20;0.90;;;0.90;;
13425;SDS011;6785;57.918;12.530;2022-11-21T08:37:47;1.20;;;1.20;;
13425;SDS011;6785;57.918;12.530;2022-11-21T08:40:15;1.20;;;1.13;;
13425;SDS011;6785;57.918;12.530;2022-11-21T08:42:42;1.47;;;1.37;;
13425;SDS011;6785;57.918;12.530;2022-11-21T08:45:09;1.70;;;1.60;;
13425;SDS011;6785;57.918;12.530;2022-11-21T08:47:36;1.00;;;1.00;;
13425;SDS011;6785;57.918;12.530;2022-11-21T08:50:02;1.47;;;1.37;;
13425;SDS011;6785;57.918;12.530;2022-11-21T08:52:30;1.40;;;1.03;;
13425;SDS011;6785;57.918;12.530;2022-11-21T08:54:56;1.30;;;1.20;;
13425;SDS011;6785;57.918;12.530;2022-11-21T08:57:24;1.20;;;1.10;;
13425;SDS011;6785;57.918;12.530;2022-11-21T08:59:51;2.10;;;1.60;;
13425;SDS011;6785;57.918;12.530;2022-11-21T09:02:18;2.70;;;1.93;;
13425;SDS011;6785;57.918;12.530;2022-11-21T09:04:45;1.90;;;1.60;;
13425;SDS011;6785;57.918;12.530;2022-11-21T09:07:11;2.57;;;1.50;;
13425;SDS011;6785;57.918;12.530;2022-11-21T09:09:38;3.37;;;2.10;;
13425;SDS011;6785;57.918;12.530;2022-11-21T09:12:05;2.27;;;1.77;;
13425;SDS011;6785;57.918;12.530;2022-11-21T09:14:33;2.10;;;1.90;;
13425;SDS011;6785;57.918;12.530;2022-11-21T09:17:18;1.53;;;1.33;;
13425;SDS011;6785;57.918;12.530;2022-11-21T09:20:02;1.77;;;1.40;;
13425;SDS011;6785;57.918;12.530;2022-11-21T09:22:29;1.23;;;1.10;;
13425;SDS011;6785;57.918;12.530;2022-11-21T09:24:56;1.40;;;1.30;;
13425;SDS011;6785;57.918;12.530;2022-11-21T09:27:23;1.30;;;1.20;;
13425;SDS011;6785;57.918;12.530;2022-11-21T09:29:51;1.87;;;1.40;;
13425;SDS011;6785;57.918;12.530;2022-11-21T09:32:18;1.40;;;1.30;;
13425;SDS011;6785;57.918;12.530;2022-11-21T09:34:45;1.30;;;1.17;;
13425;SDS011;6785;57.918;12.530;2022-11-21T09:37:11;1.80;;;1.50;;
13425;SDS011;6785;57.918;12.530;2022-11-21T09:39:38;1.50;;;1.40;;
13425;SDS011;6785;57.918;12.530;2022-11-21T09:44:59;1.57;;;1.47;;
13425;SDS011;6785;57.918;12.530;2022-11-21T09:47:34;1.43;;;1.33;;
13425;SDS011;6785;57.918;12.530;2022-11-21T09:50:04;1.43;;;1.33;;
13425;SDS011;6785;57.918;12.530;2022-11-21T09:52:35;1.40;;;1.30;;
13425;SDS011;6785;57.918;12.530;2022-11-21T09:55:06;3.07;;;1.10;;
13425;SDS011;6785;57.918;12.530;2022-11-21T09:57:43;1.20;;;1.10;;
13425;SDS011;6785;57.918;12.530;2022-11-21T10:00:15;1.30;;;1.20;;
13425;SDS011;6785;57.918;12.530;2022-11-21T10:02:45;1.13;;;1.07;;
13425;SDS011;6785;57.918;12.530;2022-11-21T10:05:13;1.17;;;1.10;;
13425;SDS011;6785;57.918;12.530;2022-11-21T10:07:41;1.40;;;1.10;;
13425;SDS011;6785;57.918;12.530;2022-11-21T10:10:21;0.97;;;0.93;;
13425;SDS011;6785;57.918;12.530;2022-11-21T10:13:00;1.20;;;1.10;;
13425;SDS011;6785;57.918;12.530;2022-11-21T10:15:39;2.00;;;1.50;;
13425;SDS011;6785;57.918;12.530;2022-11-21T10:21:24;1.40;;;1.30;;
13425;SDS011;6785;57.918;12.530;2022-11-21T10:24:11;1.30;;;1.20;;
13425;SDS011;6785;57.918;12.530;2022-11-21T10:26:49;1.23;;;1.10;;
13425;SDS011;6785;57.918;12.530;2022-11-21T10:29:18;1.33;;;1.03;;
13425;SDS011;6785;57.918;12.530;2022-11-21T10:31:51;0.97;;;0.90;;
13425;SDS011;6785;57.918;12.530;2022-11-21T10:34:23;1.93;;;1.20;;
13425;SDS011;6785;57.918;12.530;2022-11-21T10:36:55;1.00;;;1.00;;
13425;SDS011;6785;57.918;12.530;2022-11-21T10:39:26;1.10;;;1.00;;
13425;SDS011;6785;57.918;12.530;2022-11-21T10:42:00;0.70;;;0.70;;
13425;SDS011;6785;57.918;12.530;2022-11-21T10:44:30;1.10;;;1.10;;
13425;SDS011;6785;57.918;12.530;2022-11-21T10:47:17;0.77;;;0.77;;
13425;SDS011;6785;57.918;12.530;2022-11-21T10:49:52;1.30;;;1.20;;
13425;SDS011;6785;57.918;12.530;2022-11-21T10:52:25;1.10;;;1.10;;
13425;SDS011;6785;57.918;12.530;2022-11-21T10:55:04;1.40;;;1.30;;
13425;SDS011;6785;57.918;12.530;2022-11-21T10:57:37;1.43;;;1.33;;
13425;SDS011;6785;57.918;12.530;2022-11-21T11:00:14;1.50;;;1.30;;
13425;SDS011;6785;57.918;12.530;2022-11-21T11:03:01;1.40;;;1.30;;
13425;SDS011;6785;57.918;12.530;2022-11-21T11:05:33;1.47;;;1.37;;
13425;SDS011;6785;57.918;12.530;2022-11-21T11:08:05;1.60;;;1.20;;
13425;SDS011;6785;57.918;12.530;2022-11-21T11:10:35;1.53;;;1.23;;
13425;SDS011;6785;57.918;12.530;2022-11-21T11:13:12;2.70;;;1.27;;
13425;SDS011;6785;57.918;12.530;2022-11-21T11:16:02;1.63;;;1.30;;
13425;SDS011;6785;57.918;12.530;2022-11-21T11:18:32;1.97;;;1.30;;
13425;SDS011;6785;57.918;12.530;2022-11-21T11:21:11;1.60;;;1.40;;
13425;SDS011;6785;57.918;12.530;2022-11-21T11:23:41;1.27;;;1.17;;
13425;SDS011;6785;57.918;12.530;2022-11-21T11:26:17;1.43;;;1.33;;
13425;SDS011;6785;57.918;12.530;2022-11-21T11:28:49;1.67;;;1.57;;
13425;SDS011;6785;57.918;12.530;2022-11-21T11:31:17;1.70;;;1.50;;
13425;SDS011;6785;57.918;12.530;2022-11-21T11:33:52;1.97;;;1.73;;
13425;SDS011;6785;57.918;12.530;2022-11-21T11:36:27;1.93;;;1.70;;
13425;SDS011;6785;57.918;12.530;2022-11-21T11:39:03;1.50;;;1.40;;
13425;SDS011;6785;57.918;12.530;2022-11-21T11:45:06;1.53;;;1.40;;
13425;SDS011;6785;57.918;12.530;2022-11-21T11:47:58;1.40;;;1.30;;
13425;SDS011;6785;57.918;12.530;2022-11-21T11:50:30;2.23;;;1.63;;
13425;SDS011;6785;57.918;12.530;2022-11-21T11:53:01;1.37;;;1.23;;
13425;SDS011;6785;57.918;12.530;2022-11-21T11:55:35;1.53;;;1.30;;
13425;SDS011;6785;57.918;12.530;2022-11-21T11:58:12;2.07;;;1.70;;
13425;SDS011;6785;57.918;12.530;2022-11-21T12:00:57;1.43;;;1.33;;
13425;SDS011;6785;57.918;12.530;2022-11-21T12:03:33;1.63;;;1.53;;
13425;SDS011;6785;57.918;12.530;2022-11-21T12:06:10;1.70;;;1.60;;
13425;SDS011;6785;57.918;12.530;2022-11-21T12:08:47;1.90;;;1.60;;
13425;SDS011;6785;57.918;12.530;2022-11-21T12:11:22;2.20;;;1.70;;
13425;SDS011;6785;57.918;12.530;2022-11-21T12:14:13;2.07;;;1.40;;
13425;SDS011;6785;57.918;12.530;2022-11-21T12:17:34;1.90;;;1.80;;
13425;SDS011;6785;57.918;12.530;2022-11-21T12:20:11;1.80;;;1.70;;
13425;SDS011;6785;57.918;12.530;2022-11-21T12:22:44;1.70;;;1.50;;
13425;SDS011;6785;57.918;12.530;2022-11-21T12:25:12;1.87;;;1.77;;
13425;SDS011;6785;57.918;12.530;2022-11-21T12:27:41;2.27;;;1.50;;
13425;SDS011;6785;57.918;12.530;2022-11-21T12:30:26;1.70;;;1.60;;
13425;SDS011;6785;57.918;12.530;2022-11-21T12:33:11;2.23;;;1.90;;
13425;SDS011;6785;57.918;12.530;2022-11-21T12:36:02;2.47;;;1.90;;
13425;SDS011;6785;57.918;12.530;2022-11-21T12:41:35;2.03;;;1.60;;
13425;SDS011;6785;57.918;12.530;2022-11-21T12:44:28;2.07;;;1.80;;
13425;SDS011;6785;57.918;12.530;2022-11-21T12:47:12;2.10;;;1.90;;
13425;SDS011;6785;57.918;12.530;2022-11-21T12:49:52;2.37;;;1.90;;
13425;SDS011;6785;57.918;12.530;2022-11-21T12:52:46;2.37;;;1.80;;
13425;SDS011;6785;57.918;12.530;2022-11-21T12:55:37;2.00;;;1.70;;
13425;SDS011;6785;57.918;12.530;2022-11-21T12:58:10;3.07;;;1.90;;
13425;SDS011;6785;57.918;12.530;2022-11-21T13:00:49;1.83;;;1.70;;
13425;SDS011;6785;57.918;12.530;2022-11-21T13:03:36;2.43;;;2.10;;
13425;SDS011;6785;57.918;12.530;2022-11-21T13:06:15;2.93;;;2.00;;
13425;SDS011;6785;57.918;12.530;2022-11-21T13:08:48;2.07;;;1.87;;
13425;SDS011;6785;57.918;12.530;2022-11-21T13:11:31;2.27;;;2.00;;
13425;SDS011;6785;57.918;12.530;2022-11-21T13:14:26;3.53;;;2.50;;
13425;SDS011;6785;57.918;12.530;2022-11-21T13:17:01;2.13;;;1.90;;
13425;SDS011;6785;57.918;12.530;2022-11-21T13:19:41;3.07;;;2.47;;
13425;SDS011;6785;57.918;12.530;2022-11-21T13:28:29;3.60;;;2.30;;
13425;SDS011;6785;57.918;12.530;2022-11-21T13:31:00;3.43;;;2.47;;
13425;SDS011;6785;57.918;12.530;2022-11-21T13:33:46;2.93;;;2.00;;
13425;SDS011;6785;57.918;12.530;2022-11-21T13:36:34;3.43;;;2.10;;
13425;SDS011;6785;57.918;12.530;2022-11-21T13:41:58;3.67;;;2.20;;
13425;SDS011;6785;57.918;12.530;2022-11-21T13:44:54;2.07;;;1.87;;
13425;SDS011;6785;57.918;12.530;2022-11-21T13:47:29;2.10;;;1.90;;
13425;SDS011;6785;57.918;12.530;2022-11-21T13:50:25;2.67;;;2.20;;
13425;SDS011;6785;57.918;12.530;2022-11-21T13:53:03;2.90;;;2.40;;
13425;SDS011;6785;57.918;12.530;2022-11-21T13:55:44;3.10;;;2.33;;
13425;SDS011;6785;57.918;12.530;2022-11-21T13:58:25;2.67;;;2.30;;
13425;SDS011;6785;57.918;12.530;2022-11-21T14:01:16;3.37;;;2.67;;
13425;SDS011;6785;57.918;12.530;2022-11-21T14:03:59;5.90;;;2.70;;
13425;SDS011;6785;57.918;12.530;2022-11-21T14:06:42;3.00;;;2.33;;
13425;SDS011;6785;57.918;12.530;2022-11-21T14:09:14;2.80;;;2.40;;
13425;SDS011;6785;57.918;12.530;2022-11-21T14:11:53;3.40;;;2.23;;
13425;SDS011;6785;57.918;12.530;2022-11-21T14:14:33;2.33;;;2.13;;
13425;SDS011;6785;57.918;12.530;2022-11-21T14:17:26;3.90;;;2.87;;
13425;SDS011;6785;57.918;12.530;2022-11-21T14:20:06;3.33;;;2.73;;
13425;SDS011;6785;57.918;12.530;2022-11-21T14:22:40;3.93;;;2.87;;
13425;SDS011;6785;57.918;12.530;2022-11-21T14:25:12;3.43;;;2.80;;
13425;SDS011;6785;57.918;12.530;2022-11-21T14:27:44;3.27;;;2.90;;
13425;SDS011;6785;57.918;12.530;2022-11-21T14:30:25;3.37;;;2.93;;
13425;SDS011;6785;57.918;12.530;2022-11-21T14:35:46;3.33;;;2.67;;
13425;SDS011;6785;57.918;12.530;2022-11-21T14:38:14;5.33;;;3.30;;
13425;SDS011;6785;57.918;12.530;2022-11-21T14:40:41;5.73;;;2.90;;
13425;SDS011;6785;57.918;12.530;2022-11-21T14:43:20;4.07;;;3.33;;
13425;SDS011;6785;57.918;12.530;2022-11-21T14:45:57;5.13;;;3.20;;
13425;SDS011;6785;57.918;12.530;2022-11-21T14:48:25;5.20;;;3.07;;
13425;SDS011;6785;57.918;12.530;2022-11-21T14:50:54;3.87;;;3.10;;
13425;SDS011;6785;57.918;12.530;2022-11-21T14:53:23;5.07;;;3.30;;
13425;SDS011;6785;57.918;12.530;2022-11-21T14:55:51;5.87;;;3.23;;
13425;SDS011;6785;57.918;12.530;2022-11-21T14:58:18;5.03;;;3.60;;
13425;SDS011;6785;57.918;12.530;2022-11-21T15:01:00;5.13;;;3.43;;
13425;SDS011;6785;57.918;12.530;2022-11-21T15:03:28;6.27;;;3.60;;
13425;SDS011;6785;57.918;12.530;2022-11-21T15:05:59;4.07;;;3.23;;
13425;SDS011;6785;57.918;12.530;2022-11-21T15:08:27;4.97;;;3.80;;
13425;SDS011;6785;57.918;12.530;2022-11-21T15:10:54;6.63;;;3.87;;
13425;SDS011;6785;57.918;12.530;2022-11-21T15:13:23;5.67;;;3.57;;
13425;SDS011;6785;57.918;12.530;2022-11-21T15:15:53;6.43;;;4.13;;
13425;SDS011;6785;57.918;12.530;2022-11-21T15:18:21;5.47;;;3.93;;
13425;SDS011;6785;57.918;12.530;2022-11-21T15:20:51;6.33;;;4.03;;
13425;SDS011;6785;57.918;12.530;2022-11-21T15:23:26;5.63;;;3.80;;
13425;SDS011;6785;57.918;12.530;2022-11-21T15:25:54;5.20;;;3.77;;
13425;SDS011;6785;57.918;12.530;2022-11-21T15:28:22;6.67;;;4.30;;
13425;SDS011;6785;57.918;12.530;2022-11-21T15:33:56;6.63;;;4.57;;
13425;SDS011;6785;57.918;12.530;2022-11-21T15:36:26;9.40;;;4.30;;
13425;SDS011;6785;57.918;12.530;2022-11-21T15:38:54;6.73;;;4.37;;
13425;SDS011;6785;57.918;12.530;2022-11-21T15:41:27;5.97;;;4.20;;